createdAt,value
2022-08-29T00:03:39.679Z,95548.00
2022-08-29T00:07:25.089Z,95540.66
2022-08-29T00:11:10.738Z,95547.50
2022-08-29T00:14:53.628Z,95552.38
2022-08-29T00:18:37.321Z,95556.47
2022-08-29T00:22:20.070Z,95551.25
2022-08-29T00:26:04.537Z,95555.44
2022-08-29T00:29:47.367Z,95562.84
2022-08-29T00:33:30.149Z,95555.34
2022-08-29T00:37:15.393Z,95562.59
2022-08-29T00:40:59.770Z,95563.41
2022-08-29T00:44:43.977Z,95566.31
2022-08-29T00:48:27.138Z,95565.63
2022-08-29T00:52:13.860Z,95557.91
2022-08-29T00:55:56.609Z,95559.19
2022-08-29T00:59:40.528Z,95551.69
2022-08-29T01:03:24.760Z,95553.66
2022-08-29T01:07:07.866Z,95555.16
2022-08-29T01:11:11.514Z,95560.72
2022-08-29T01:14:57.465Z,95542.84
2022-08-29T01:18:45.705Z,95545.72
2022-08-29T01:22:56.950Z,95553.44
2022-08-29T01:26:41.348Z,95558.41
2022-08-29T01:30:24.286Z,95552.78
2022-08-29T01:34:10.091Z,95544.22
2022-08-29T01:37:52.871Z,95541.44
2022-08-29T01:41:36.431Z,95555.75
2022-08-29T01:45:20.696Z,95556.22
2022-08-29T01:49:05.521Z,95548.16
2022-08-29T01:52:48.394Z,95551.84
2022-08-29T01:56:32.831Z,95541.22
2022-08-29T02:00:16.376Z,95544.34
2022-08-29T02:04:00.566Z,95545.03
2022-08-29T02:07:43.356Z,95551.28
2022-08-29T02:11:26.153Z,95545.63
2022-08-29T02:15:09.329Z,95545.06
2022-08-29T02:18:52.223Z,95539.75
2022-08-29T02:22:37.356Z,95542.41
2022-08-29T02:26:21.331Z,95546.66
2022-08-29T02:30:04.409Z,95547.13
2022-08-29T02:33:47.411Z,95548.63
2022-08-29T02:37:30.187Z,95545.75
2022-08-29T02:41:18.281Z,95541.72
2022-08-29T02:45:01.239Z,95541.13
2022-08-29T02:48:47.566Z,95540.56
2022-08-29T02:52:37.468Z,95531.22
2022-08-29T02:56:21.629Z,95539.28
2022-08-29T03:00:05.883Z,95538.09
2022-08-29T03:03:50.290Z,95548.56
2022-08-29T03:07:33.336Z,95541.06
2022-08-29T03:11:17.180Z,95538.41
2022-08-29T03:15:01.391Z,95543.72
2022-08-29T03:18:44.195Z,95541.28
2022-08-29T03:22:27.844Z,95547.84
2022-08-29T03:26:10.587Z,95547.03
2022-08-29T03:29:53.365Z,95548.31
2022-08-29T03:33:37.483Z,95541.41
2022-08-29T03:37:20.812Z,95553.63
2022-08-29T03:41:03.598Z,95549.81
2022-08-29T03:44:46.388Z,95547.66
2022-08-29T03:48:29.185Z,95556.22
2022-08-29T03:52:13.310Z,95550.31
2022-08-29T03:55:58.904Z,95554.63
2022-08-29T03:59:42.958Z,95557.38
2022-08-29T04:03:30.892Z,95567.66
2022-08-29T04:07:16.002Z,95557.16
2022-08-29T04:10:58.775Z,95560.84
2022-08-29T04:14:41.728Z,95560.38
2022-08-29T04:18:24.496Z,95571.00
2022-08-29T04:22:08.061Z,95568.56
2022-08-29T04:26:07.249Z,95569.25
2022-08-29T04:29:55.468Z,95562.81
2022-08-29T04:33:38.281Z,95568.91
2022-08-29T04:37:21.075Z,95572.03
2022-08-29T04:41:09.797Z,95573.75
2022-08-29T04:44:52.794Z,95578.25
2022-08-29T04:48:35.568Z,95586.44
2022-08-29T04:52:18.295Z,95584.78
2022-08-29T04:56:03.350Z,95584.06
2022-08-29T04:59:50.072Z,95591.06
2022-08-29T05:03:35.810Z,95593.94
2022-08-29T05:07:20.825Z,95588.41
2022-08-29T05:11:03.773Z,95591.41
2022-08-29T05:14:47.922Z,95593.84
2022-08-29T05:18:30.706Z,95592.16
2022-08-29T05:22:14.446Z,95589.66
2022-08-29T05:25:58.513Z,95599.34
2022-08-29T05:29:42.446Z,95596.81
2022-08-29T05:33:27.808Z,95602.00
2022-08-29T05:37:12.632Z,95601.66
2022-08-29T05:40:55.401Z,95601.44
2022-08-29T05:44:38.854Z,95602.59
2022-08-29T05:48:21.613Z,95598.44
2022-08-29T05:52:07.093Z,95601.66
2022-08-29T05:55:49.905Z,95606.06
2022-08-29T05:59:32.713Z,95614.69
2022-08-29T06:03:15.943Z,95612.19
2022-08-29T06:06:58.801Z,95616.00
2022-08-29T06:10:45.217Z,95620.38
2022-08-29T06:14:28.142Z,95612.53
2022-08-29T06:18:10.932Z,95607.91
2022-08-29T06:21:56.004Z,95610.19
2022-08-29T06:25:39.847Z,95612.00
2022-08-29T06:29:24.517Z,95610.16
2022-08-29T06:33:07.533Z,95608.31
2022-08-29T06:36:53.141Z,95613.59
2022-08-29T06:40:38.394Z,95613.53
2022-08-29T06:44:21.925Z,95620.66
2022-08-29T06:48:06.335Z,95625.13
2022-08-29T06:51:57.381Z,95624.28
2022-08-29T06:55:40.625Z,95624.44
2022-08-29T06:59:23.442Z,95623.81
2022-08-29T07:03:08.127Z,95628.53
2022-08-29T07:06:50.917Z,95638.78
2022-08-29T07:10:33.771Z,95639.50
2022-08-29T07:14:16.634Z,95636.47
2022-08-29T07:18:00.888Z,95631.78
2022-08-29T07:21:44.991Z,95638.38
2022-08-29T07:25:28.246Z,95636.59
2022-08-29T07:29:13.595Z,95630.28
2022-08-29T07:32:56.620Z,95637.06
2022-08-29T07:36:39.747Z,95643.25
2022-08-29T07:40:24.274Z,95643.19
2022-08-29T07:44:07.162Z,95643.84
2022-08-29T07:47:53.010Z,95649.78
2022-08-29T07:51:36.934Z,95641.38
2022-08-29T07:55:21.842Z,95646.81
2022-08-29T07:59:06.390Z,95656.00
2022-08-29T08:02:49.271Z,95664.41
2022-08-29T08:06:32.087Z,95656.75
2022-08-29T08:10:19.836Z,95664.31
2022-08-29T08:14:03.047Z,95667.59
2022-08-29T08:17:47.245Z,95676.22
2022-08-29T08:21:30.035Z,95661.91
2022-08-29T08:25:14.118Z,95663.88
2022-08-29T08:28:56.980Z,95663.66
2022-08-29T08:32:45.632Z,95661.88
2022-08-29T08:36:41.037Z,95670.22
2022-08-29T08:40:27.550Z,95671.94
2022-08-29T08:44:15.003Z,95665.06
2022-08-29T08:48:02.700Z,95671.00
2022-08-29T08:51:51.030Z,95671.09
2022-08-29T08:55:41.644Z,95677.56
2022-08-29T08:59:30.096Z,95667.69
2022-08-29T09:03:26.470Z,95671.75
2022-08-29T09:07:24.150Z,95669.66
2022-08-29T09:11:12.351Z,95665.72
2022-08-29T09:15:04.137Z,95665.50
2022-08-29T09:18:49.914Z,95669.81
2022-08-29T09:22:40.645Z,95680.03
2022-08-29T09:26:24.821Z,95662.47
2022-08-29T09:30:11.446Z,95668.41
2022-08-29T09:33:55.844Z,95667.94
2022-08-29T09:37:41.180Z,95677.63
2022-08-29T09:41:30.816Z,95681.19
2022-08-29T09:45:19.413Z,95662.53
2022-08-29T09:49:14.016Z,95660.16
2022-08-29T09:53:00.262Z,95661.53
2022-08-29T09:56:53.366Z,95663.97
2022-08-29T10:00:38.843Z,95656.53
2022-08-29T10:04:37.840Z,95653.84
2022-08-29T10:08:31.679Z,95650.34
2022-08-29T10:12:18.111Z,95649.81
2022-08-29T10:16:07.014Z,95651.69
2022-08-29T10:19:49.948Z,95657.59
2022-08-29T10:23:39.316Z,95653.03
2022-08-29T10:27:31.123Z,95653.28
2022-08-29T10:31:17.227Z,95658.66
2022-08-29T10:35:08.906Z,95653.00
2022-08-29T10:38:58.250Z,95654.34
2022-08-29T10:42:42.139Z,95655.41
2022-08-29T10:46:41.591Z,95653.22
2022-08-29T10:50:46.575Z,95658.03
2022-08-29T10:54:37.447Z,95657.97
2022-08-29T10:58:33.582Z,95655.22
2022-08-29T11:02:24.106Z,95655.16
2022-08-29T11:06:12.951Z,95655.66
2022-08-29T11:09:59.946Z,95655.13
2022-08-29T11:13:45.533Z,95645.97
2022-08-29T11:17:32.523Z,95639.00
2022-08-29T11:21:27.450Z,95641.69
2022-08-29T11:25:14.282Z,95647.31
2022-08-29T11:29:01.981Z,95645.34
2022-08-29T11:32:52.489Z,95644.97
2022-08-29T11:36:55.608Z,95644.09
2022-08-29T11:45:00.619Z,95628.91
2022-08-29T11:48:47.402Z,95636.41
2022-08-29T11:52:31.249Z,95632.63
2022-08-29T11:56:28.364Z,95634.78
2022-08-29T12:00:39.055Z,95628.31
2022-08-29T12:04:53.241Z,95629.38
2022-08-29T12:08:38.715Z,95625.72
2022-08-29T12:12:43.918Z,95627.13
2022-08-29T12:16:28.915Z,95635.50
2022-08-29T12:20:22.268Z,95628.53
2022-08-29T12:24:27.156Z,95632.28
2022-08-29T12:28:33.743Z,95628.47
2022-08-29T12:32:40.140Z,95631.56
2022-08-29T12:36:33.032Z,95631.44
2022-08-29T12:40:32.287Z,95624.19
2022-08-29T12:44:21.333Z,95625.31
2022-08-29T12:48:08.055Z,95616.16
2022-08-29T12:51:56.203Z,95616.28
2022-08-29T12:55:43.378Z,95626.34
2022-08-29T12:59:29.141Z,95606.88
2022-08-29T13:03:18.584Z,95604.53
2022-08-29T13:07:03.217Z,95598.22
2022-08-29T13:10:54.848Z,95599.19
2022-08-29T13:14:49.985Z,95591.69
2022-08-29T13:18:59.838Z,95599.97
2022-08-29T13:22:42.302Z,95602.94
2022-08-29T13:26:27.683Z,95604.78
2022-08-29T13:30:24.387Z,95598.81
2022-08-29T13:34:21.005Z,95592.28
2022-08-29T13:38:18.185Z,95586.88
2022-08-29T13:42:21.067Z,95589.31
2022-08-29T13:46:15.687Z,95575.28
2022-08-29T13:50:00.171Z,95572.03
2022-08-29T13:53:44.768Z,95572.41
2022-08-29T13:57:30.447Z,95562.13
2022-08-29T14:01:30.879Z,95576.09
2022-08-29T14:05:17.749Z,95569.66
2022-08-29T14:09:01.296Z,95561.13
2022-08-29T14:12:44.479Z,95564.47
2022-08-29T14:16:28.624Z,95558.31
2022-08-29T14:20:12.637Z,95556.19
2022-08-29T14:23:58.882Z,95547.97
2022-08-29T14:27:41.872Z,95553.31
2022-08-29T14:31:24.697Z,95543.78
2022-08-29T14:35:25.675Z,95540.25
2022-08-29T14:39:09.732Z,95533.13
2022-08-29T14:42:55.496Z,95529.94
2022-08-29T14:46:38.317Z,95528.41
2022-08-29T14:50:23.028Z,95530.13
2022-08-29T14:54:05.884Z,95534.78
2022-08-29T14:57:48.781Z,95533.66
2022-08-29T15:01:31.685Z,95536.16
2022-08-29T15:05:14.572Z,95534.41
2022-08-29T15:08:59.348Z,95533.19
2022-08-29T15:12:42.215Z,95533.50
2022-08-29T15:16:27.455Z,95539.88
2022-08-29T15:20:35.516Z,95526.03
2022-08-29T15:24:15.856Z,95520.56
2022-08-29T15:27:58.659Z,95516.84
2022-08-29T15:31:41.396Z,95521.25
2022-08-29T15:35:24.146Z,95506.75
2022-08-29T15:39:07.250Z,95511.09
2022-08-29T15:42:52.044Z,95516.81
2022-08-29T15:46:38.035Z,95509.81
2022-08-29T15:50:23.527Z,95504.56
2022-08-29T15:54:08.617Z,95502.06
2022-08-29T15:57:53.120Z,95503.66
2022-08-29T16:01:37.549Z,95507.47
2022-08-29T16:05:24.245Z,95500.75
2022-08-29T16:09:15.194Z,95500.50
2022-08-29T16:13:05.328Z,95501.84
2022-08-29T16:16:48.114Z,95502.84
2022-08-29T16:20:31.469Z,95501.22
2022-08-29T16:24:14.528Z,95507.59
2022-08-29T16:27:57.838Z,95508.22
2022-08-29T16:31:41.923Z,95503.16
2022-08-29T16:35:25.210Z,95503.78
2022-08-29T16:39:08.091Z,95499.34
2022-08-29T16:42:55.741Z,95501.31
2022-08-29T16:46:38.706Z,95493.97
2022-08-29T16:50:23.271Z,95491.22
2022-08-29T16:54:06.122Z,95498.69
2022-08-29T16:58:02.845Z,95513.53
2022-08-29T17:01:48.352Z,95505.06
2022-08-29T17:05:32.703Z,95501.09
2022-08-29T17:09:15.347Z,95504.00
2022-08-29T17:12:57.023Z,95504.31
2022-08-29T17:16:49.534Z,95508.16
2022-08-29T17:20:37.402Z,95511.69
2022-08-29T17:24:20.973Z,95512.09
2022-08-29T17:28:17.739Z,95514.00
2022-08-29T17:32:07.262Z,95505.44
2022-08-29T17:35:51.433Z,95515.28
2022-08-29T17:39:39.340Z,95496.09
2022-08-29T17:43:22.996Z,95504.94
2022-08-29T17:47:05.962Z,95501.47
2022-08-29T17:50:49.060Z,95499.41
2022-08-29T17:54:33.227Z,95498.53
2022-08-29T17:58:16.165Z,95508.81
2022-08-29T18:01:59.846Z,95507.88
2022-08-29T18:05:42.748Z,95499.06
2022-08-29T18:09:25.895Z,95510.31
2022-08-29T18:13:10.181Z,95518.69
2022-08-29T18:16:53.425Z,95532.09
2022-08-29T18:20:37.511Z,95528.91
2022-08-29T18:24:20.923Z,95525.69
2022-08-29T18:28:06.713Z,95533.19
2022-08-29T18:31:50.863Z,95533.75
2022-08-29T18:35:33.713Z,95534.56
2022-08-29T18:39:17.234Z,95544.50
2022-08-29T18:43:01.645Z,95542.38
2022-08-29T18:46:48.303Z,95549.34
2022-08-29T18:50:35.516Z,95549.91
2022-08-29T18:54:19.343Z,95552.06
2022-08-29T18:58:02.677Z,95553.66
2022-08-29T19:01:45.680Z,95556.34
2022-08-29T19:05:31.090Z,95556.84
2022-08-29T19:09:15.447Z,95559.78
2022-08-29T19:12:59.214Z,95565.41
2022-08-29T19:16:42.061Z,95564.88
2022-08-29T19:20:44.003Z,95567.56
2022-08-29T19:24:28.380Z,95569.16
2022-08-29T19:28:11.779Z,95578.75
2022-08-29T19:31:54.669Z,95592.13
2022-08-29T19:35:38.442Z,95586.22
2022-08-29T19:39:21.265Z,95589.91
2022-08-29T19:43:13.503Z,95590.44
2022-08-29T19:46:56.918Z,95599.56
2022-08-29T19:50:40.568Z,95601.94
2022-08-29T19:54:23.629Z,95603.75
2022-08-29T19:58:08.080Z,95603.13
2022-08-29T20:01:51.685Z,95596.19
2022-08-29T20:05:35.020Z,95599.16
2022-08-29T20:13:07.255Z,95604.25
2022-08-29T20:16:50.133Z,95604.97
2022-08-29T20:20:36.092Z,95600.41
2022-08-29T20:24:19.251Z,95603.03
2022-08-29T20:28:05.788Z,95599.81
2022-08-29T20:31:50.006Z,95601.16
2022-08-29T20:35:52.852Z,95598.72
2022-08-29T20:39:36.950Z,95595.94
2022-08-29T20:43:20.367Z,95599.09
2022-08-29T20:47:05.662Z,95590.22
2022-08-29T20:50:48.538Z,95596.81
2022-08-29T20:54:31.623Z,95587.41
2022-08-29T20:58:14.398Z,95596.72
2022-08-29T21:01:57.257Z,95596.69
2022-08-29T21:05:43.324Z,95598.72
2022-08-29T21:09:26.480Z,95602.97
2022-08-29T21:13:10.075Z,95606.44
2022-08-29T21:16:54.239Z,95603.34
2022-08-29T21:20:37.734Z,95606.66
2022-08-29T21:24:30.457Z,95610.84
2022-08-29T21:28:14.223Z,95608.56
2022-08-29T21:31:58.593Z,95603.44
2022-08-29T21:35:42.016Z,95603.38
2022-08-29T21:39:28.563Z,95601.22
2022-08-29T21:43:13.288Z,95598.16
2022-08-29T21:46:56.229Z,95610.13
2022-08-29T21:50:39.146Z,95613.22
2022-08-29T21:54:21.949Z,95604.38
2022-08-29T21:58:04.717Z,95613.91
2022-08-29T22:01:52.693Z,95608.28
2022-08-29T22:05:40.751Z,95601.22
2022-08-29T22:09:26.679Z,95610.09
2022-08-29T22:13:10.366Z,95595.56
2022-08-29T22:16:54.774Z,95609.94
2022-08-29T22:20:38.412Z,95606.31
2022-08-29T22:24:21.254Z,95607.94
2022-08-29T22:28:04.608Z,95612.91
2022-08-29T22:31:47.419Z,95615.25
2022-08-29T22:35:31.580Z,95607.03
2022-08-29T22:39:14.474Z,95612.84
2022-08-29T22:42:57.774Z,95615.13
2022-08-29T22:46:43.164Z,95609.81
2022-08-29T22:50:26.855Z,95618.53
2022-08-29T22:54:28.753Z,95627.72
2022-08-29T22:58:11.592Z,95624.44
2022-08-29T23:01:58.716Z,95610.81
2022-08-29T23:05:41.730Z,95607.28
2022-08-29T23:09:25.894Z,95614.75
2022-08-29T23:13:12.194Z,95619.22
2022-08-29T23:16:55.158Z,95614.69
2022-08-29T23:20:37.991Z,95615.50
2022-08-29T23:24:21.873Z,95624.78
2022-08-29T23:28:06.127Z,95617.41
2022-08-29T23:31:48.898Z,95622.41
2022-08-29T23:35:31.714Z,95615.47
2022-08-29T23:39:16.642Z,95608.53
2022-08-29T23:42:59.391Z,95609.22
2022-08-29T23:46:43.552Z,95601.63
2022-08-29T23:50:26.462Z,95595.50
2022-08-29T23:54:09.253Z,95600.75
2022-08-29T23:57:51.927Z,95593.13
